Nearby METAR Reports

 

KMEV - Minden, Nevada, USA
Distance from station: N 3mi, 5km
Updated: Wed, 29-Mar-2017 7:35pm PDT
Mostly cloudy
Mostly cloudy
 Wind from NW
Wind: NW 6 mph , 9 km/h
Temperature: 59°F , 15°C
Dew Point: 37°F , 3°C
Humidity: 45%
Barometer: 30.13 inHg , 1020.3 hPa
Clouds: Mostly cloudy
Visibility: 10 miles , 16 km
Cloud details: Mostly cloudy 6500 ft
Mostly cloudy 9500 ft
2017/03/30 02:35 KMEV 300235Z AUTO 32005KT 10SM BKN065 BKN095 15/03 A3013 RMK AO2
KCXP - Carson City, Nevada, USA
Distance from station: N 10mi, 16km
Updated: Wed, 29-Mar-2017 7:35pm PDT
Overcast
Overcast
 Wind from S
Wind: S 9 mph , 15 km/h
Temperature: 59°F , 15°C
Dew Point: 37°F , 3°C
Humidity: 45%
Barometer: 30.13 inHg , 1020.3 hPa
Clouds: Overcast
Visibility: 10 miles , 16 km
Cloud details: Overcast 7000 ft
2017/03/30 02:35 KCXP 300235Z AUTO 19008KT 150V210 10SM OVC070 15/03 A3013 RMK AO2
 
KTVL - South Lake Tahoe, California, USA
Distance from station: WSW 18mi, 29km
Updated: Wed, 29-Mar-2017 6:53pm PDT
Overcast
Overcast
 Wind from varies
Wind: varies 3 mph , 6 km/h
Temperature: 50°F , 10°C
Dew Point: 37°F , 3°C
Humidity: 62%
Barometer: 30.20 inHg , 1022.7 hPa
Clouds: Overcast
Visibility: 10 miles , 16 km
Cloud details: Overcast 5500 ft
2017/03/30 01:53 KTVL 300153Z AUTO VRB03KT 10SM OVC055 10/03 A3020 RMK AO2 SLP212 T01000028
KTRK - Truckee Tahoe, California, USA
Distance from station: NW 29mi, 46km
Updated: Wed, 29-Mar-2017 7:35pm PDT
Partly cloudy
Partly cloudy
 Wind from W
Wind: W 10 mph , 17 km/h
Temperature: 48°F , 9°C
Wind Chill: 44°F , 7°C
Dew Point: 37°F , 3°C
Humidity: 66%
Barometer: 30.20 inHg , 1022.7 hPa
Clouds: Partly cloudy
Visibility: 10 miles , 16 km
Cloud details: Partly cloudy 4500 ft
2017/03/30 02:35 KTRK 300235Z AUTO 27009KT 10SM SCT045 09/03 A3020 RMK AO2
 
KRNO - Reno, Nevada, USA
Distance from station: N 31mi, 50km
Updated: Wed, 29-Mar-2017 6:55pm PDT
Mostly cloudy
Mostly cloudy
 Wind from NW
Wind: NW 13 mph , 20 km/h
Temperature: 64°F , 18°C
Dew Point: 37°F , 3°C
Humidity: 37%
Barometer: 30.12 inHg , 1020 hPa
Clouds: Mostly cloudy
Visibility: 10 miles , 16 km
Cloud details: Few Clouds 8000 ft
Mostly cloudy 16000 ft
Mostly cloudy 25000 ft
2017/03/30 01:55 KRNO 300155Z 31011KT 10SM FEW080 BKN160 BKN250 18/03 A3012 RMK AO2 RAE13 SLP181 ACSL ALQDS APRNT ROTOR CLD OHD N S P0000 T01780033
KRTS - Reno/Stead, Nevada, USA
Distance from station: NNW 44mi, 71km
Updated: Wed, 29-Mar-2017 7:35pm PDT
Clear
Clear
 Wind from NNW
Wind: NNW 5 mph , 7 km/h
Temperature: 50°F , 10°C
Wind Chill: 48°F , 9°C
Dew Point: 39°F , 4°C
Humidity: 67%
Barometer: 30.13 inHg , 1020.3 hPa
Clouds: Clear
Visibility: 10 miles , 16 km
2017/03/30 02:35 KRTS 300235Z AUTO 34004KT 10SM CLR 10/04 A3013 RMK AO2
 
KBLU - Emigrant Gap, California, USA
Distance from station: WNW 55mi, 89km
Updated: Wed, 29-Mar-2017 6:52pm PDT
Clear
Clear
 Wind from WSW
Wind: WSW 3 mph , 6 km/h
Temperature: 54°F , 12°C
Dew Point: 37°F , 3°C
Humidity: 54%
Barometer: 30.21 inHg , 1023 hPa
Clouds: Clear
Visibility: 10 miles , 16 km
2017/03/30 01:52 KBLU 300152Z AUTO 24003KT 10SM CLR 12/03 A3021 RMK AO2 SLP187 T01170033 TSNO
KPVF - Placerville, California, USA
Distance from station: WSW 60mi, 96km
Updated: Wed, 29-Mar-2017 7:35pm PDT
Few Clouds
Few Clouds
 Wind from calm
Wind: Calm
Temperature: 61°F , 16°C
Dew Point: 46°F , 8°C
Humidity: 59%
Barometer: 30.14 inHg , 1020.7 hPa
Clouds: Few Clouds
Visibility: 10 miles , 16 km
Cloud details: Few Clouds 9000 ft
2017/03/30 02:35 KPVF 300235Z AUTO 00000KT 10SM FEW090 16/08 A3014 RMK AO1
 
KNFL - Fallon Nas, Nevada, USA
Distance from station: ENE 61mi, 97km
Updated: Wed, 29-Mar-2017 6:56pm PDT
Light rain, Mostly cloudy
Light rain, Mostly cloudy
 Wind from NNW
Wind: NNW 8 mph , 13 km/h, Gust: 20 mph , 31 km/h
Temperature: 66°F , 19°C
Dew Point: 32°F , 0°C
Humidity: 28%
Barometer: 30.08 inHg , 1018.6 hPa
Summary: Light rain
Clouds: Mostly cloudy
Visibility: 10 miles , 16 km
Cloud details: Few Clouds 6000 ft
Partly cloudy 8000 ft
Mostly cloudy 10000 ft
Mostly cloudy 25000 ft
2017/03/30 01:56 KNFL 300156Z 33007G17KT 10SM -RA FEW060 SCT080 BKN100 BKN250 19/00 A3008 RMK AO2 RAB49 SLP154 P0000 T01940000
KGOO - Grass Valley, California, USA
Distance from station: W 70mi, 112km
Updated: Wed, 29-Mar-2017 7:35pm PDT
Clear
Clear
 Wind from W
Wind: W 6 mph , 9 km/h
Temperature: 59°F , 15°C
Dew Point: 48°F , 9°C
Humidity: 68%
Barometer: 30.14 inHg , 1020.7 hPa
Clouds: Clear
Visibility: 10 miles , 16 km
2017/03/30 02:35 KGOO 300235Z AUTO 27005KT 10SM CLR 15/09 A3014 RMK AO1
 
KAUN - Auburn Muni, California, USA
Distance from station: W 73mi, 118km
Updated: Wed, 29-Mar-2017 7:35pm PDT
Clear
Clear
 Wind from calm
Wind: Calm
Temperature: 64°F , 18°C
Dew Point: 48°F , 9°C
Humidity: 56%
Barometer: 30.11 inHg , 1019.6 hPa
Clouds: Clear
Visibility: 10 miles , 16 km
2017/03/30 02:35 KAUN 300235Z AUTO 00000KT 10SM CLR 18/09 A3011 RMK AO1
KO22 - Columbia, California, USA
Distance from station: SSW 79mi, 127km
Updated: Wed, 29-Mar-2017 7:35pm PDT
Clear
Clear
 Wind from calm
Wind: Calm
Temperature: 59°F , 15°C
Dew Point: 46°F , 8°C
Humidity: 63%
Barometer: 30.14 inHg , 1020.7 hPa
Clouds: Clear
Visibility: 10 miles , 16 km
2017/03/30 02:35 KO22 300235Z AUTO 00000KT 10SM CLR 15/08 A3014 RMK AO1
 
KLHM - Lincoln, California, USA
Distance from station: W 88mi, 141km
Updated: Wed, 29-Mar-2017 7:35pm PDT
Clear
Clear
 Wind from W
Wind: W 5 mph , 7 km/h
Temperature: 64°F , 18°C
Dew Point: 52°F , 11°C
Humidity: 64%
Barometer: 30.06 inHg , 1017.9 hPa
Clouds: Clear
Visibility: 10 miles , 16 km
2017/03/30 02:35 KLHM 300235Z AUTO 28004KT 10SM CLR 18/11 A3006 RMK AO1
KBAB - Beale Afb/Marysv, California, USA
Distance from station: W 91mi, 147km
Updated: Wed, 29-Mar-2017 6:58pm PDT
Mostly cloudy
Mostly cloudy
 Wind from WSW
Wind: WSW 5 mph , 7 km/h
Temperature: 68°F , 20°C
Dew Point: 59°F , 15°C
Humidity: 73%
Barometer: 30.05 inHg , 1017.6 hPa
Clouds: Mostly cloudy
Visibility: 10 miles , 16 km
Cloud details: Mostly cloudy 16000 ft
2017/03/30 01:58 KBAB 300158Z 24004KT 10SM BKN160 20/15 A3005 RMK AO2A SLP179 $
 
KMHR - Mather Field, California, USA
Distance from station: WSW 91mi, 147km
Updated: Wed, 29-Mar-2017 6:50pm PDT
Partly cloudy
Partly cloudy
 Wind from S
Wind: S 8 mph , 13 km/h
Temperature: 68°F , 20°C
Dew Point: 54°F , 12°C
Humidity: 60%
Barometer: 30.07 inHg , 1018.3 hPa
Clouds: Partly cloudy
Visibility: 10 miles , 16 km
Cloud details: Partly cloudy 11000 ft
2017/03/30 01:50 KMHR 300150Z 17007KT 10SM SCT110 20/12 A3007
KLOL - Lovelock, Nevada, USA
Distance from station: NE 94mi, 151km
Updated: Wed, 29-Mar-2017 6:53pm PDT
Mostly cloudy
Mostly cloudy
 Wind from WNW
Wind: WNW 8 mph , 13 km/h
Temperature: 61°F , 16°C
Dew Point: 41°F , 5°C
Humidity: 48%
Barometer: 30.09 inHg , 1019 hPa
Clouds: Mostly cloudy
Visibility: 10 miles , 16 km
Cloud details: Few Clouds 4300 ft
Partly cloudy 7000 ft
Mostly cloudy 12000 ft
2017/03/30 01:53 KLOL 300153Z AUTO 29007KT 10SM FEW043 SCT070 BKN120 16/05 A3009 RMK AO2 RAE09B33E48 SLP189 P0000 T01610050
 
KMCC - Mcclellan Afb, California, USA
Distance from station: WSW 94mi, 151km
Updated: Wed, 29-Mar-2017 7:35pm PDT
Clear
Clear
 Wind from SW
Wind: SW 6 mph , 9 km/h
Temperature: 66°F , 19°C
Dew Point: 50°F , 10°C
Humidity: 56%
Barometer: 30.08 inHg , 1018.6 hPa
Clouds: Clear
Visibility: 10 miles , 16 km
2017/03/30 02:35 KMCC 300235Z AUTO 22005KT 10SM CLR 19/10 A3008 RMK AO2
KMYV - Marysville, California, USA
Distance from station: W 99mi, 159km
Updated: Wed, 29-Mar-2017 6:53pm PDT
Clear
Clear
 Wind from SW
Wind: SW 3 mph , 6 km/h
Temperature: 70°F , 21°C
Dew Point: 52°F , 11°C
Humidity: 53%
Barometer: 30.07 inHg , 1018.3 hPa
Clouds: Clear
Visibility: 10 miles , 16 km
2017/03/30 01:53 KMYV 300153Z AUTO 23003KT 10SM CLR 21/11 A3007 RMK AO2 SLP187 T02060111
Honor Flight NV - Honoring all of our Veterans CoCoRaHS (Community Collaborative Rain, Hail and Snow Network) Station Number: NV-DG-2 Live Lightning Map - USA Reno Skywarn Spotter ID: DO21 AlertID Southwestern Weather Network Carson Valley Community Food Closet - providing for the needs of our community